sensor_id;sensor_type;location;lat;lon;timestamp;P1;durP1;ratioP1;P2;durP2;ratioP2
7171;SDS011;3627;46.544;14.944;2024-01-30T00:00:06;1.90;;;1.80;;
7171;SDS011;3627;46.544;14.944;2024-01-30T00:02:34;2.00;;;1.90;;
7171;SDS011;3627;46.544;14.944;2024-01-30T00:05:02;2.00;;;1.90;;
7171;SDS011;3627;46.544;14.944;2024-01-30T00:07:29;2.10;;;2.00;;
7171;SDS011;3627;46.544;14.944;2024-01-30T00:09:56;2.10;;;2.00;;
7171;SDS011;3627;46.544;14.944;2024-01-30T00:12:22;2.00;;;1.90;;
7171;SDS011;3627;46.544;14.944;2024-01-30T00:14:48;2.00;;;1.90;;
7171;SDS011;3627;46.544;14.944;2024-01-30T00:17:15;2.00;;;1.90;;
7171;SDS011;3627;46.544;14.944;2024-01-30T00:19:41;2.10;;;2.00;;
7171;SDS011;3627;46.544;14.944;2024-01-30T00:22:09;2.07;;;1.97;;
7171;SDS011;3627;46.544;14.944;2024-01-30T00:24:35;2.10;;;2.00;;
7171;SDS011;3627;46.544;14.944;2024-01-30T00:27:02;2.07;;;1.97;;
7171;SDS011;3627;46.544;14.944;2024-01-30T00:29:28;1.90;;;1.80;;
7171;SDS011;3627;46.544;14.944;2024-01-30T00:31:58;1.90;;;1.80;;
7171;SDS011;3627;46.544;14.944;2024-01-30T00:34:25;2.10;;;2.00;;
7171;SDS011;3627;46.544;14.944;2024-01-30T00:36:51;2.00;;;1.90;;
7171;SDS011;3627;46.544;14.944;2024-01-30T00:39:19;2.00;;;1.90;;
7171;SDS011;3627;46.544;14.944;2024-01-30T00:41:45;2.10;;;2.00;;
7171;SDS011;3627;46.544;14.944;2024-01-30T00:44:11;2.30;;;2.20;;
7171;SDS011;3627;46.544;14.944;2024-01-30T00:46:38;2.07;;;1.97;;
7171;SDS011;3627;46.544;14.944;2024-01-30T00:49:04;2.10;;;2.00;;
7171;SDS011;3627;46.544;14.944;2024-01-30T00:51:30;2.10;;;2.00;;
7171;SDS011;3627;46.544;14.944;2024-01-30T00:53:57;1.90;;;1.80;;
7171;SDS011;3627;46.544;14.944;2024-01-30T00:56:25;1.90;;;1.80;;
7171;SDS011;3627;46.544;14.944;2024-01-30T00:58:51;2.00;;;1.90;;
7171;SDS011;3627;46.544;14.944;2024-01-30T01:01:17;2.00;;;1.90;;
7171;SDS011;3627;46.544;14.944;2024-01-30T01:03:44;2.00;;;1.90;;
7171;SDS011;3627;46.544;14.944;2024-01-30T01:06:10;2.10;;;2.00;;
7171;SDS011;3627;46.544;14.944;2024-01-30T01:08:36;2.00;;;1.90;;
7171;SDS011;3627;46.544;14.944;2024-01-30T01:11:03;2.00;;;1.90;;
7171;SDS011;3627;46.544;14.944;2024-01-30T01:13:31;1.90;;;1.80;;
7171;SDS011;3627;46.544;14.944;2024-01-30T01:15:57;2.00;;;1.90;;
7171;SDS011;3627;46.544;14.944;2024-01-30T01:18:23;2.00;;;1.90;;
7171;SDS011;3627;46.544;14.944;2024-01-30T01:20:50;2.00;;;1.90;;
7171;SDS011;3627;46.544;14.944;2024-01-30T01:23:16;2.10;;;2.00;;
7171;SDS011;3627;46.544;14.944;2024-01-30T01:25:42;2.07;;;1.97;;
7171;SDS011;3627;46.544;14.944;2024-01-30T01:28:09;2.00;;;1.90;;
7171;SDS011;3627;46.544;14.944;2024-01-30T01:30:37;1.97;;;1.87;;
7171;SDS011;3627;46.544;14.944;2024-01-30T01:33:04;2.10;;;2.00;;
7171;SDS011;3627;46.544;14.944;2024-01-30T01:35:31;2.03;;;1.93;;
7171;SDS011;3627;46.544;14.944;2024-01-30T01:37:58;2.00;;;1.90;;
7171;SDS011;3627;46.544;14.944;2024-01-30T01:40:25;2.00;;;1.90;;
7171;SDS011;3627;46.544;14.944;2024-01-30T01:42:52;2.00;;;1.90;;
7171;SDS011;3627;46.544;14.944;2024-01-30T01:45:19;2.00;;;1.90;;
7171;SDS011;3627;46.544;14.944;2024-01-30T01:47:47;2.10;;;2.00;;
7171;SDS011;3627;46.544;14.944;2024-01-30T01:50:14;2.20;;;2.10;;
7171;SDS011;3627;46.544;14.944;2024-01-30T01:52:43;2.00;;;1.90;;
7171;SDS011;3627;46.544;14.944;2024-01-30T01:55:11;2.00;;;1.90;;
7171;SDS011;3627;46.544;14.944;2024-01-30T01:57:37;1.90;;;1.80;;
7171;SDS011;3627;46.544;14.944;2024-01-30T02:00:04;2.13;;;2.03;;
7171;SDS011;3627;46.544;14.944;2024-01-30T02:02:31;2.00;;;1.90;;
7171;SDS011;3627;46.544;14.944;2024-01-30T02:05:00;2.00;;;1.90;;
7171;SDS011;3627;46.544;14.944;2024-01-30T02:07:27;1.93;;;1.83;;
7171;SDS011;3627;46.544;14.944;2024-01-30T02:09:53;2.00;;;1.90;;
7171;SDS011;3627;46.544;14.944;2024-01-30T02:12:20;2.10;;;2.00;;
7171;SDS011;3627;46.544;14.944;2024-01-30T02:14:46;2.00;;;1.90;;
7171;SDS011;3627;46.544;14.944;2024-01-30T02:17:13;2.00;;;1.90;;
7171;SDS011;3627;46.544;14.944;2024-01-30T02:19:39;2.10;;;2.00;;
7171;SDS011;3627;46.544;14.944;2024-01-30T02:22:07;2.10;;;2.00;;
7171;SDS011;3627;46.544;14.944;2024-01-30T02:24:34;2.10;;;2.00;;
7171;SDS011;3627;46.544;14.944;2024-01-30T02:27:00;2.00;;;1.90;;
7171;SDS011;3627;46.544;14.944;2024-01-30T02:29:27;2.00;;;1.90;;
7171;SDS011;3627;46.544;14.944;2024-01-30T02:31:53;2.10;;;2.00;;
7171;SDS011;3627;46.544;14.944;2024-01-30T02:34:20;2.00;;;1.90;;
7171;SDS011;3627;46.544;14.944;2024-01-30T02:36:46;1.90;;;1.80;;
7171;SDS011;3627;46.544;14.944;2024-01-30T02:39:14;2.10;;;2.00;;
7171;SDS011;3627;46.544;14.944;2024-01-30T02:41:40;2.00;;;1.90;;
7171;SDS011;3627;46.544;14.944;2024-01-30T02:44:07;2.10;;;2.00;;
7171;SDS011;3627;46.544;14.944;2024-01-30T02:46:33;2.10;;;2.00;;
7171;SDS011;3627;46.544;14.944;2024-01-30T02:48:59;2.00;;;1.90;;
7171;SDS011;3627;46.544;14.944;2024-01-30T02:51:26;2.10;;;2.00;;
7171;SDS011;3627;46.544;14.944;2024-01-30T02:53:52;2.20;;;2.10;;
7171;SDS011;3627;46.544;14.944;2024-01-30T02:56:20;2.10;;;2.00;;
7171;SDS011;3627;46.544;14.944;2024-01-30T02:58:46;1.90;;;1.80;;
7171;SDS011;3627;46.544;14.944;2024-01-30T03:01:12;2.20;;;2.10;;
7171;SDS011;3627;46.544;14.944;2024-01-30T03:03:39;2.00;;;1.90;;
7171;SDS011;3627;46.544;14.944;2024-01-30T03:06:05;2.00;;;1.90;;
7171;SDS011;3627;46.544;14.944;2024-01-30T03:08:32;2.00;;;1.90;;
7171;SDS011;3627;46.544;14.944;2024-01-30T03:10:59;2.00;;;1.90;;
7171;SDS011;3627;46.544;14.944;2024-01-30T03:13:27;2.10;;;2.00;;
7171;SDS011;3627;46.544;14.944;2024-01-30T03:15:54;2.10;;;2.00;;
7171;SDS011;3627;46.544;14.944;2024-01-30T03:18:20;2.03;;;1.93;;
7171;SDS011;3627;46.544;14.944;2024-01-30T03:20:47;2.00;;;1.90;;
7171;SDS011;3627;46.544;14.944;2024-01-30T03:23:13;2.10;;;2.00;;
7171;SDS011;3627;46.544;14.944;2024-01-30T03:25:39;2.00;;;1.90;;
7171;SDS011;3627;46.544;14.944;2024-01-30T03:28:06;2.00;;;1.90;;
7171;SDS011;3627;46.544;14.944;2024-01-30T03:30:34;2.10;;;2.00;;
7171;SDS011;3627;46.544;14.944;2024-01-30T03:33:00;2.00;;;1.90;;
7171;SDS011;3627;46.544;14.944;2024-01-30T03:35:26;2.00;;;1.90;;
7171;SDS011;3627;46.544;14.944;2024-01-30T03:37:53;2.00;;;1.90;;
7171;SDS011;3627;46.544;14.944;2024-01-30T03:40:19;2.10;;;2.00;;
7171;SDS011;3627;46.544;14.944;2024-01-30T03:42:45;2.00;;;1.90;;
7171;SDS011;3627;46.544;14.944;2024-01-30T03:45:12;2.00;;;1.90;;
7171;SDS011;3627;46.544;14.944;2024-01-30T03:47:39;2.00;;;1.90;;
7171;SDS011;3627;46.544;14.944;2024-01-30T03:50:09;2.10;;;2.00;;
7171;SDS011;3627;46.544;14.944;2024-01-30T03:52:35;2.10;;;2.00;;
7171;SDS011;3627;46.544;14.944;2024-01-30T03:55:02;2.33;;;2.23;;
7171;SDS011;3627;46.544;14.944;2024-01-30T03:57:28;2.17;;;2.07;;
7171;SDS011;3627;46.544;14.944;2024-01-30T03:59:55;2.20;;;2.10;;
7171;SDS011;3627;46.544;14.944;2024-01-30T04:02:21;2.00;;;1.90;;
7171;SDS011;3627;46.544;14.944;2024-01-30T04:04:49;2.10;;;2.00;;
7171;SDS011;3627;46.544;14.944;2024-01-30T04:07:15;2.17;;;2.07;;
7171;SDS011;3627;46.544;14.944;2024-01-30T04:09:41;2.10;;;2.00;;
7171;SDS011;3627;46.544;14.944;2024-01-30T04:12:08;2.00;;;1.90;;
7171;SDS011;3627;46.544;14.944;2024-01-30T04:14:34;2.10;;;2.00;;
7171;SDS011;3627;46.544;14.944;2024-01-30T04:17:01;2.00;;;1.90;;
7171;SDS011;3627;46.544;14.944;2024-01-30T04:19:27;2.10;;;2.00;;
7171;SDS011;3627;46.544;14.944;2024-01-30T04:21:55;2.03;;;1.93;;
7171;SDS011;3627;46.544;14.944;2024-01-30T04:24:21;2.10;;;2.00;;
7171;SDS011;3627;46.544;14.944;2024-01-30T04:26:47;2.07;;;1.97;;
7171;SDS011;3627;46.544;14.944;2024-01-30T04:29:14;2.00;;;1.90;;
7171;SDS011;3627;46.544;14.944;2024-01-30T04:31:40;2.00;;;1.90;;
7171;SDS011;3627;46.544;14.944;2024-01-30T04:34:06;2.00;;;1.90;;
7171;SDS011;3627;46.544;14.944;2024-01-30T04:36:33;2.00;;;1.90;;
7171;SDS011;3627;46.544;14.944;2024-01-30T04:39:01;2.00;;;1.90;;
7171;SDS011;3627;46.544;14.944;2024-01-30T04:41:28;2.10;;;2.00;;
7171;SDS011;3627;46.544;14.944;2024-01-30T04:43:56;2.10;;;2.00;;
7171;SDS011;3627;46.544;14.944;2024-01-30T04:46:23;1.90;;;1.80;;
7171;SDS011;3627;46.544;14.944;2024-01-30T04:48:49;2.20;;;2.10;;
7171;SDS011;3627;46.544;14.944;2024-01-30T04:51:16;2.10;;;2.00;;
7171;SDS011;3627;46.544;14.944;2024-01-30T04:53:42;2.00;;;1.90;;
7171;SDS011;3627;46.544;14.944;2024-01-30T04:56:10;2.20;;;2.10;;
7171;SDS011;3627;46.544;14.944;2024-01-30T04:58:36;2.10;;;2.00;;
7171;SDS011;3627;46.544;14.944;2024-01-30T05:01:02;2.10;;;2.00;;
7171;SDS011;3627;46.544;14.944;2024-01-30T05:03:32;2.00;;;1.90;;
7171;SDS011;3627;46.544;14.944;2024-01-30T05:05:58;2.10;;;2.00;;
7171;SDS011;3627;46.544;14.944;2024-01-30T05:08:25;2.03;;;1.93;;
7171;SDS011;3627;46.544;14.944;2024-01-30T05:10:51;2.10;;;2.00;;
7171;SDS011;3627;46.544;14.944;2024-01-30T05:13:19;2.10;;;2.00;;
7171;SDS011;3627;46.544;14.944;2024-01-30T05:15:45;2.20;;;2.10;;
7171;SDS011;3627;46.544;14.944;2024-01-30T05:18:12;2.00;;;1.90;;
7171;SDS011;3627;46.544;14.944;2024-01-30T05:20:38;2.10;;;2.00;;
7171;SDS011;3627;46.544;14.944;2024-01-30T05:23:04;2.10;;;2.00;;
7171;SDS011;3627;46.544;14.944;2024-01-30T05:25:31;2.00;;;1.90;;
7171;SDS011;3627;46.544;14.944;2024-01-30T05:27:57;2.10;;;2.00;;
7171;SDS011;3627;46.544;14.944;2024-01-30T05:30:25;2.00;;;1.90;;
7171;SDS011;3627;46.544;14.944;2024-01-30T05:32:51;2.20;;;2.10;;
7171;SDS011;3627;46.544;14.944;2024-01-30T05:35:17;2.20;;;2.10;;
7171;SDS011;3627;46.544;14.944;2024-01-30T05:37:47;2.10;;;2.00;;
7171;SDS011;3627;46.544;14.944;2024-01-30T05:40:14;2.20;;;2.10;;
7171;SDS011;3627;46.544;14.944;2024-01-30T05:42:40;2.00;;;1.90;;
7171;SDS011;3627;46.544;14.944;2024-01-30T05:45:07;2.10;;;2.00;;
7171;SDS011;3627;46.544;14.944;2024-01-30T05:47:35;2.00;;;1.90;;
7171;SDS011;3627;46.544;14.944;2024-01-30T05:50:02;2.00;;;1.90;;
7171;SDS011;3627;46.544;14.944;2024-01-30T05:52:28;2.00;;;1.90;;
7171;SDS011;3627;46.544;14.944;2024-01-30T05:54:55;2.03;;;1.93;;
7171;SDS011;3627;46.544;14.944;2024-01-30T05:57:21;2.10;;;2.00;;
7171;SDS011;3627;46.544;14.944;2024-01-30T05:59:47;2.10;;;2.00;;
7171;SDS011;3627;46.544;14.944;2024-01-30T06:02:16;2.00;;;1.90;;
7171;SDS011;3627;46.544;14.944;2024-01-30T06:04:44;2.10;;;2.00;;
7171;SDS011;3627;46.544;14.944;2024-01-30T06:07:10;2.10;;;2.00;;
7171;SDS011;3627;46.544;14.944;2024-01-30T06:09:37;2.10;;;2.00;;
7171;SDS011;3627;46.544;14.944;2024-01-30T06:12:03;2.10;;;2.00;;
7171;SDS011;3627;46.544;14.944;2024-01-30T06:14:30;2.30;;;2.20;;
7171;SDS011;3627;46.544;14.944;2024-01-30T06:16:57;2.10;;;2.00;;
7171;SDS011;3627;46.544;14.944;2024-01-30T06:19:24;2.20;;;2.10;;
7171;SDS011;3627;46.544;14.944;2024-01-30T06:21:52;1.93;;;1.83;;
7171;SDS011;3627;46.544;14.944;2024-01-30T06:24:18;2.10;;;2.00;;
7171;SDS011;3627;46.544;14.944;2024-01-30T06:26:45;2.10;;;2.00;;
7171;SDS011;3627;46.544;14.944;2024-01-30T06:29:12;2.10;;;2.00;;
7171;SDS011;3627;46.544;14.944;2024-01-30T06:31:40;2.00;;;1.90;;
7171;SDS011;3627;46.544;14.944;2024-01-30T06:34:06;2.13;;;2.03;;
7171;SDS011;3627;46.544;14.944;2024-01-30T06:36:33;2.00;;;1.90;;
7171;SDS011;3627;46.544;14.944;2024-01-30T06:39:01;2.20;;;2.10;;
7171;SDS011;3627;46.544;14.944;2024-01-30T06:41:27;2.10;;;2.00;;
7171;SDS011;3627;46.544;14.944;2024-01-30T06:43:54;2.10;;;2.00;;
7171;SDS011;3627;46.544;14.944;2024-01-30T06:46:21;2.00;;;1.90;;
7171;SDS011;3627;46.544;14.944;2024-01-30T06:48:47;2.10;;;2.00;;
7171;SDS011;3627;46.544;14.944;2024-01-30T06:51:13;2.20;;;2.10;;
7171;SDS011;3627;46.544;14.944;2024-01-30T06:53:40;2.00;;;1.90;;
7171;SDS011;3627;46.544;14.944;2024-01-30T06:56:08;2.10;;;2.00;;
7171;SDS011;3627;46.544;14.944;2024-01-30T06:58:34;2.10;;;2.00;;
7171;SDS011;3627;46.544;14.944;2024-01-30T07:01:00;2.10;;;2.00;;
7171;SDS011;3627;46.544;14.944;2024-01-30T07:03:27;2.10;;;2.00;;
7171;SDS011;3627;46.544;14.944;2024-01-30T07:05:53;2.17;;;2.07;;
7171;SDS011;3627;46.544;14.944;2024-01-30T07:08:19;2.10;;;2.00;;
7171;SDS011;3627;46.544;14.944;2024-01-30T07:10:47;2.13;;;2.03;;
7171;SDS011;3627;46.544;14.944;2024-01-30T07:13:15;2.10;;;2.00;;
7171;SDS011;3627;46.544;14.944;2024-01-30T07:15:41;2.10;;;2.00;;
7171;SDS011;3627;46.544;14.944;2024-01-30T07:18:08;2.00;;;1.90;;
7171;SDS011;3627;46.544;14.944;2024-01-30T07:20:35;2.00;;;1.90;;
7171;SDS011;3627;46.544;14.944;2024-01-30T07:23:01;2.00;;;1.90;;
7171;SDS011;3627;46.544;14.944;2024-01-30T07:25:28;2.00;;;1.90;;
7171;SDS011;3627;46.544;14.944;2024-01-30T07:27:54;2.00;;;1.90;;
7171;SDS011;3627;46.544;14.944;2024-01-30T07:30:22;2.00;;;1.90;;
7171;SDS011;3627;46.544;14.944;2024-01-30T07:32:49;2.00;;;1.90;;
7171;SDS011;3627;46.544;14.944;2024-01-30T07:35:16;2.00;;;1.90;;
7171;SDS011;3627;46.544;14.944;2024-01-30T07:37:42;1.90;;;1.80;;
7171;SDS011;3627;46.544;14.944;2024-01-30T07:40:09;2.00;;;1.90;;
7171;SDS011;3627;46.544;14.944;2024-01-30T07:42:35;2.00;;;1.90;;
7171;SDS011;3627;46.544;14.944;2024-01-30T07:45:01;2.00;;;1.90;;
7171;SDS011;3627;46.544;14.944;2024-01-30T07:47:29;2.03;;;1.93;;
7171;SDS011;3627;46.544;14.944;2024-01-30T07:49:56;2.00;;;1.90;;
7171;SDS011;3627;46.544;14.944;2024-01-30T07:52:22;2.00;;;1.90;;
7171;SDS011;3627;46.544;14.944;2024-01-30T07:54:49;1.90;;;1.80;;
7171;SDS011;3627;46.544;14.944;2024-01-30T07:57:15;1.77;;;1.77;;
7171;SDS011;3627;46.544;14.944;2024-01-30T07:59:42;1.77;;;1.77;;
7171;SDS011;3627;46.544;14.944;2024-01-30T08:02:08;1.67;;;1.67;;
7171;SDS011;3627;46.544;14.944;2024-01-30T08:04:36;1.50;;;1.50;;
7171;SDS011;3627;46.544;14.944;2024-01-30T08:07:03;1.40;;;1.40;;
7171;SDS011;3627;46.544;14.944;2024-01-30T08:09:29;1.40;;;1.40;;
7171;SDS011;3627;46.544;14.944;2024-01-30T08:11:55;1.33;;;1.33;;
7171;SDS011;3627;46.544;14.944;2024-01-30T08:14:22;1.33;;;1.33;;
7171;SDS011;3627;46.544;14.944;2024-01-30T08:16:48;1.33;;;1.33;;
7171;SDS011;3627;46.544;14.944;2024-01-30T08:19:15;1.40;;;1.40;;
7171;SDS011;3627;46.544;14.944;2024-01-30T08:21:42;1.15;;;1.15;;
7171;SDS011;3627;46.544;14.944;2024-01-30T08:24:09;1.20;;;1.20;;
7171;SDS011;3627;46.544;14.944;2024-01-30T08:26:34;1.13;;;1.13;;
7171;SDS011;3627;46.544;14.944;2024-01-30T08:29:01;1.20;;;1.20;;
7171;SDS011;3627;46.544;14.944;2024-01-30T08:31:27;1.13;;;1.13;;
7171;SDS011;3627;46.544;14.944;2024-01-30T08:33:53;1.00;;;1.00;;
7171;SDS011;3627;46.544;14.944;2024-01-30T08:36:20;1.00;;;1.00;;
7171;SDS011;3627;46.544;14.944;2024-01-30T08:38:48;1.02;;;1.02;;
7171;SDS011;3627;46.544;14.944;2024-01-30T08:41:14;1.10;;;1.10;;
7171;SDS011;3627;46.544;14.944;2024-01-30T08:43:40;1.00;;;1.00;;
7171;SDS011;3627;46.544;14.944;2024-01-30T08:46:07;1.20;;;1.20;;
7171;SDS011;3627;46.544;14.944;2024-01-30T08:48:33;1.00;;;1.00;;
7171;SDS011;3627;46.544;14.944;2024-01-30T08:50:59;1.00;;;1.00;;
7171;SDS011;3627;46.544;14.944;2024-01-30T08:53:26;1.00;;;1.00;;
7171;SDS011;3627;46.544;14.944;2024-01-30T08:55:53;1.00;;;1.00;;
7171;SDS011;3627;46.544;14.944;2024-01-30T08:58:20;0.90;;;0.90;;
7171;SDS011;3627;46.544;14.944;2024-01-30T09:00:46;0.80;;;0.80;;
7171;SDS011;3627;46.544;14.944;2024-01-30T09:03:13;0.95;;;0.95;;
7171;SDS011;3627;46.544;14.944;2024-01-30T09:05:39;0.90;;;0.90;;
7171;SDS011;3627;46.544;14.944;2024-01-30T09:08:05;0.93;;;0.93;;
7171;SDS011;3627;46.544;14.944;2024-01-30T09:10:32;0.80;;;0.80;;
7171;SDS011;3627;46.544;14.944;2024-01-30T09:12:59;0.80;;;0.80;;
7171;SDS011;3627;46.544;14.944;2024-01-30T09:15:26;0.85;;;0.85;;
7171;SDS011;3627;46.544;14.944;2024-01-30T09:17:52;1.00;;;1.00;;
7171;SDS011;3627;46.544;14.944;2024-01-30T09:20:19;0.75;;;0.75;;
7171;SDS011;3627;46.544;14.944;2024-01-30T09:22:45;0.80;;;0.80;;
7171;SDS011;3627;46.544;14.944;2024-01-30T09:25:11;0.70;;;0.70;;
7171;SDS011;3627;46.544;14.944;2024-01-30T09:27:38;0.80;;;0.80;;
7171;SDS011;3627;46.544;14.944;2024-01-30T09:30:07;0.70;;;0.70;;
7171;SDS011;3627;46.544;14.944;2024-01-30T09:32:33;0.70;;;0.70;;
7171;SDS011;3627;46.544;14.944;2024-01-30T09:35:00;0.60;;;0.60;;
7171;SDS011;3627;46.544;14.944;2024-01-30T09:37:26;0.70;;;0.70;;
7171;SDS011;3627;46.544;14.944;2024-01-30T09:39:52;0.60;;;0.60;;
7171;SDS011;3627;46.544;14.944;2024-01-30T09:42:20;0.70;;;0.70;;
7171;SDS011;3627;46.544;14.944;2024-01-30T09:44:50;0.60;;;0.60;;
7171;SDS011;3627;46.544;14.944;2024-01-30T09:47:18;0.55;;;0.55;;
7171;SDS011;3627;46.544;14.944;2024-01-30T09:49:44;0.50;;;0.50;;
7171;SDS011;3627;46.544;14.944;2024-01-30T09:52:11;0.43;;;0.43;;
7171;SDS011;3627;46.544;14.944;2024-01-30T09:54:38;0.57;;;0.57;;
7171;SDS011;3627;46.544;14.944;2024-01-30T09:57:06;0.50;;;0.50;;
7171;SDS011;3627;46.544;14.944;2024-01-30T09:59:33;0.43;;;0.43;;
7171;SDS011;3627;46.544;14.944;2024-01-30T10:02:00;0.50;;;0.50;;
7171;SDS011;3627;46.544;14.944;2024-01-30T10:04:27;0.50;;;0.50;;
7171;SDS011;3627;46.544;14.944;2024-01-30T10:06:54;0.50;;;0.50;;
7171;SDS011;3627;46.544;14.944;2024-01-30T10:09:20;0.60;;;0.60;;
7171;SDS011;3627;46.544;14.944;2024-01-30T10:11:47;0.50;;;0.50;;
7171;SDS011;3627;46.544;14.944;2024-01-30T10:14:13;0.60;;;0.60;;
7171;SDS011;3627;46.544;14.944;2024-01-30T10:16:39;0.45;;;0.45;;
7171;SDS011;3627;46.544;14.944;2024-01-30T10:19:06;0.30;;;0.30;;
7171;SDS011;3627;46.544;14.944;2024-01-30T10:21:34;0.38;;;0.38;;
7171;SDS011;3627;46.544;14.944;2024-01-30T10:24:00;0.40;;;0.40;;
7171;SDS011;3627;46.544;14.944;2024-01-30T10:26:27;0.40;;;0.40;;
7171;SDS011;3627;46.544;14.944;2024-01-30T10:28:54;0.40;;;0.40;;
7171;SDS011;3627;46.544;14.944;2024-01-30T10:31:20;0.40;;;0.40;;
7171;SDS011;3627;46.544;14.944;2024-01-30T10:33:48;0.50;;;0.50;;
7171;SDS011;3627;46.544;14.944;2024-01-30T10:36:14;0.60;;;0.60;;
7171;SDS011;3627;46.544;14.944;2024-01-30T10:38:42;0.60;;;0.60;;
7171;SDS011;3627;46.544;14.944;2024-01-30T10:41:11;0.70;;;0.70;;
7171;SDS011;3627;46.544;14.944;2024-01-30T10:43:40;0.80;;;0.80;;
7171;SDS011;3627;46.544;14.944;2024-01-30T10:46:09;0.80;;;0.80;;
7171;SDS011;3627;46.544;14.944;2024-01-30T10:48:37;0.90;;;0.90;;
7171;SDS011;3627;46.544;14.944;2024-01-30T10:51:07;1.00;;;1.00;;
7171;SDS011;3627;46.544;14.944;2024-01-30T10:53:34;1.00;;;1.00;;
7171;SDS011;3627;46.544;14.944;2024-01-30T10:56:02;0.93;;;0.93;;
7171;SDS011;3627;46.544;14.944;2024-01-30T10:58:29;1.10;;;1.10;;
7171;SDS011;3627;46.544;14.944;2024-01-30T11:00:56;1.10;;;1.10;;
7171;SDS011;3627;46.544;14.944;2024-01-30T11:03:23;1.10;;;1.10;;
7171;SDS011;3627;46.544;14.944;2024-01-30T11:05:50;1.00;;;1.00;;
7171;SDS011;3627;46.544;14.944;2024-01-30T11:08:22;1.10;;;1.10;;
7171;SDS011;3627;46.544;14.944;2024-01-30T11:10:49;1.00;;;1.00;;
7171;SDS011;3627;46.544;14.944;2024-01-30T11:13:18;1.20;;;1.20;;
7171;SDS011;3627;46.544;14.944;2024-01-30T11:15:47;1.27;;;1.27;;
7171;SDS011;3627;46.544;14.944;2024-01-30T11:18:22;1.23;;;1.23;;
7171;SDS011;3627;46.544;14.944;2024-01-30T11:20:48;1.20;;;1.20;;
7171;SDS011;3627;46.544;14.944;2024-01-30T11:23:15;1.15;;;1.15;;
7171;SDS011;3627;46.544;14.944;2024-01-30T11:25:43;1.20;;;1.20;;
7171;SDS011;3627;46.544;14.944;2024-01-30T11:28:12;1.20;;;1.20;;
7171;SDS011;3627;46.544;14.944;2024-01-30T11:30:40;1.20;;;1.20;;
7171;SDS011;3627;46.544;14.944;2024-01-30T11:33:07;1.20;;;1.20;;
7171;SDS011;3627;46.544;14.944;2024-01-30T11:35:34;1.20;;;1.20;;
7171;SDS011;3627;46.544;14.944;2024-01-30T11:38:00;1.30;;;1.30;;
7171;SDS011;3627;46.544;14.944;2024-01-30T11:40:28;1.30;;;1.30;;
7171;SDS011;3627;46.544;14.944;2024-01-30T11:42:54;1.20;;;1.20;;
7171;SDS011;3627;46.544;14.944;2024-01-30T11:45:20;1.20;;;1.20;;
7171;SDS011;3627;46.544;14.944;2024-01-30T11:47:48;1.30;;;1.30;;
7171;SDS011;3627;46.544;14.944;2024-01-30T11:50:15;1.25;;;1.25;;
7171;SDS011;3627;46.544;14.944;2024-01-30T11:52:42;1.30;;;1.30;;
7171;SDS011;3627;46.544;14.944;2024-01-30T11:55:08;1.30;;;1.30;;
7171;SDS011;3627;46.544;14.944;2024-01-30T11:57:35;1.30;;;1.30;;
7171;SDS011;3627;46.544;14.944;2024-01-30T12:00:02;1.20;;;1.20;;
7171;SDS011;3627;46.544;14.944;2024-01-30T12:02:33;1.23;;;1.23;;
7171;SDS011;3627;46.544;14.944;2024-01-30T12:05:04;1.20;;;1.20;;
7171;SDS011;3627;46.544;14.944;2024-01-30T12:07:30;1.30;;;1.30;;
7171;SDS011;3627;46.544;14.944;2024-01-30T12:09:57;1.20;;;1.20;;
7171;SDS011;3627;46.544;14.944;2024-01-30T12:12:23;1.20;;;1.20;;
7171;SDS011;3627;46.544;14.944;2024-01-30T12:14:50;1.20;;;1.20;;
7171;SDS011;3627;46.544;14.944;2024-01-30T12:17:23;1.20;;;1.20;;
7171;SDS011;3627;46.544;14.944;2024-01-30T12:19:49;1.30;;;1.30;;
7171;SDS011;3627;46.544;14.944;2024-01-30T12:22:17;1.20;;;1.20;;
7171;SDS011;3627;46.544;14.944;2024-01-30T12:24:43;1.27;;;1.27;;
7171;SDS011;3627;46.544;14.944;2024-01-30T12:27:11;1.25;;;1.25;;
7171;SDS011;3627;46.544;14.944;2024-01-30T12:29:41;1.27;;;1.27;;
7171;SDS011;3627;46.544;14.944;2024-01-30T12:32:07;1.40;;;1.40;;
7171;SDS011;3627;46.544;14.944;2024-01-30T12:34:33;1.30;;;1.30;;
7171;SDS011;3627;46.544;14.944;2024-01-30T12:37:00;1.38;;;1.38;;
7171;SDS011;3627;46.544;14.944;2024-01-30T12:39:28;1.30;;;1.30;;
7171;SDS011;3627;46.544;14.944;2024-01-30T12:41:55;1.30;;;1.30;;
7171;SDS011;3627;46.544;14.944;2024-01-30T12:44:21;1.30;;;1.30;;
7171;SDS011;3627;46.544;14.944;2024-01-30T12:46:48;1.40;;;1.40;;
7171;SDS011;3627;46.544;14.944;2024-01-30T12:49:14;1.20;;;1.20;;
7171;SDS011;3627;46.544;14.944;2024-01-30T12:51:41;1.20;;;1.20;;
7171;SDS011;3627;46.544;14.944;2024-01-30T12:54:07;1.20;;;1.20;;
7171;SDS011;3627;46.544;14.944;2024-01-30T12:56:38;1.27;;;1.27;;
7171;SDS011;3627;46.544;14.944;2024-01-30T12:59:05;1.20;;;1.20;;
7171;SDS011;3627;46.544;14.944;2024-01-30T13:01:33;1.20;;;1.20;;
7171;SDS011;3627;46.544;14.944;2024-01-30T13:03:59;1.20;;;1.20;;
7171;SDS011;3627;46.544;14.944;2024-01-30T13:06:25;1.30;;;1.30;;
7171;SDS011;3627;46.544;14.944;2024-01-30T13:08:52;1.33;;;1.33;;
7171;SDS011;3627;46.544;14.944;2024-01-30T13:11:18;1.20;;;1.20;;
7171;SDS011;3627;46.544;14.944;2024-01-30T13:13:46;1.30;;;1.30;;
7171;SDS011;3627;46.544;14.944;2024-01-30T13:16:12;1.30;;;1.30;;
7171;SDS011;3627;46.544;14.944;2024-01-30T13:18:39;1.20;;;1.20;;
7171;SDS011;3627;46.544;14.944;2024-01-30T13:21:06;1.30;;;1.30;;
7171;SDS011;3627;46.544;14.944;2024-01-30T13:23:32;1.30;;;1.30;;
7171;SDS011;3627;46.544;14.944;2024-01-30T13:25:58;1.25;;;1.25;;
7171;SDS011;3627;46.544;14.944;2024-01-30T13:28:25;1.30;;;1.30;;
7171;SDS011;3627;46.544;14.944;2024-01-30T13:30:53;1.20;;;1.20;;
7171;SDS011;3627;46.544;14.944;2024-01-30T13:33:19;1.25;;;1.25;;
7171;SDS011;3627;46.544;14.944;2024-01-30T13:35:45;1.25;;;1.25;;
7171;SDS011;3627;46.544;14.944;2024-01-30T13:38:12;1.38;;;1.38;;
7171;SDS011;3627;46.544;14.944;2024-01-30T13:40:39;1.20;;;1.20;;
7171;SDS011;3627;46.544;14.944;2024-01-30T13:43:05;1.30;;;1.30;;
7171;SDS011;3627;46.544;14.944;2024-01-30T13:45:31;1.30;;;1.30;;
7171;SDS011;3627;46.544;14.944;2024-01-30T13:47:59;1.30;;;1.30;;
7171;SDS011;3627;46.544;14.944;2024-01-30T13:50:26;1.30;;;1.30;;
7171;SDS011;3627;46.544;14.944;2024-01-30T13:52:52;1.30;;;1.30;;
7171;SDS011;3627;46.544;14.944;2024-01-30T13:55:18;1.35;;;1.35;;
7171;SDS011;3627;46.544;14.944;2024-01-30T13:57:45;1.30;;;1.30;;
7171;SDS011;3627;46.544;14.944;2024-01-30T14:00:11;1.40;;;1.40;;
7171;SDS011;3627;46.544;14.944;2024-01-30T14:02:41;1.30;;;1.30;;
7171;SDS011;3627;46.544;14.944;2024-01-30T14:05:09;1.30;;;1.30;;
7171;SDS011;3627;46.544;14.944;2024-01-30T14:07:35;1.30;;;1.30;;
7171;SDS011;3627;46.544;14.944;2024-01-30T14:10:02;1.38;;;1.38;;
7171;SDS011;3627;46.544;14.944;2024-01-30T14:12:29;1.40;;;1.40;;
7171;SDS011;3627;46.544;14.944;2024-01-30T14:14:55;1.40;;;1.40;;
7171;SDS011;3627;46.544;14.944;2024-01-30T14:17:21;1.30;;;1.30;;
7171;SDS011;3627;46.544;14.944;2024-01-30T14:19:48;1.35;;;1.35;;
7171;SDS011;3627;46.544;14.944;2024-01-30T14:22:16;1.40;;;1.40;;
7171;SDS011;3627;46.544;14.944;2024-01-30T14:24:42;1.40;;;1.40;;
7171;SDS011;3627;46.544;14.944;2024-01-30T14:27:08;1.40;;;1.40;;
7171;SDS011;3627;46.544;14.944;2024-01-30T14:29:35;1.40;;;1.40;;
7171;SDS011;3627;46.544;14.944;2024-01-30T14:32:03;1.58;;;1.58;;
7171;SDS011;3627;46.544;14.944;2024-01-30T14:34:30;1.50;;;1.50;;
7171;SDS011;3627;46.544;14.944;2024-01-30T14:36:56;1.40;;;1.40;;
7171;SDS011;3627;46.544;14.944;2024-01-30T14:39:24;1.40;;;1.40;;
7171;SDS011;3627;46.544;14.944;2024-01-30T14:41:50;1.40;;;1.40;;
7171;SDS011;3627;46.544;14.944;2024-01-30T14:44:17;1.42;;;1.42;;
7171;SDS011;3627;46.544;14.944;2024-01-30T14:46:43;1.42;;;1.42;;
7171;SDS011;3627;46.544;14.944;2024-01-30T14:49:10;1.40;;;1.40;;
7171;SDS011;3627;46.544;14.944;2024-01-30T14:51:36;1.38;;;1.38;;
7171;SDS011;3627;46.544;14.944;2024-01-30T14:54:03;1.50;;;1.50;;
7171;SDS011;3627;46.544;14.944;2024-01-30T14:56:30;1.40;;;1.40;;